Edinburg, New York
Current Conditions -  °F | °C
As of 4:35 AM on Thursday 23 Oct 2014 (Local Time) from KNY0 Reporting Station
Overcast Overcast  
Wind Chill: 46°   Ceiling: 2500
Heat Index: 46°   Visibility: 5mi
Dew Point: 44°   Wind: 0mph
Humidity: 93%   Direction: NA
Pressure: 29.89"   Gusts: NA
Location:  43.2819°N, 74.3419°W
Report Text: KNY0 230835Z AUTO 00000KT 5SM BKN025 BKN037 OVC060 08/07 A2989 RMK AO2 P0010 T00760065
Loading
Personal Weather Stations






























Interactive Weather Map
Tropical Storm Tracking
New forecast layout! Learn more

10-Day Weather Forecast

Advertisements
Track Severe Weather on mobile